sensor_id;sensor_type;location;lat;lon;timestamp;temperature;humidity
68358;DHT22;55276;53.260;50.222;2023-01-05T00:00:40;-3268.80;77.00
68358;DHT22;55276;53.260;50.222;2023-01-05T00:03:16;-3268.80;76.40
68358;DHT22;55276;53.260;50.222;2023-01-05T00:06:08;-3268.80;76.40
68358;DHT22;55276;53.260;50.222;2023-01-05T00:08:49;-3268.70;76.30
68358;DHT22;55276;53.260;50.222;2023-01-05T00:11:26;-3268.70;76.70
68358;DHT22;55276;53.260;50.222;2023-01-05T00:14:27;-3268.70;76.80
68358;DHT22;55276;53.260;50.222;2023-01-05T00:17:23;-3268.70;76.40
68358;DHT22;55276;53.260;50.222;2023-01-05T00:20:20;-3268.70;76.70
68358;DHT22;55276;53.260;50.222;2023-01-05T00:23:17;-3268.70;76.60
68358;DHT22;55276;53.260;50.222;2023-01-05T00:25:54;-3268.70;76.80
68358;DHT22;55276;53.260;50.222;2023-01-05T00:28:30;-3268.70;76.60
68358;DHT22;55276;53.260;50.222;2023-01-05T00:31:30;-3268.70;76.60
68358;DHT22;55276;53.260;50.222;2023-01-05T00:34:08;-3268.60;76.60
68358;DHT22;55276;53.260;50.222;2023-01-05T00:37:01;-3268.70;76.60
68358;DHT22;55276;53.260;50.222;2023-01-05T00:39:37;-3268.70;76.80
68358;DHT22;55276;53.260;50.222;2023-01-05T00:42:15;-3268.60;77.00
68358;DHT22;55276;53.260;50.222;2023-01-05T00:44:51;-3268.60;77.00
68358;DHT22;55276;53.260;50.222;2023-01-05T00:47:28;-3268.60;77.10
68358;DHT22;55276;53.260;50.222;2023-01-05T00:50:05;-3268.60;77.40
68358;DHT22;55276;53.260;50.222;2023-01-05T00:52:42;-3268.60;77.50
68358;DHT22;55276;53.260;50.222;2023-01-05T00:59:16;-3268.60;77.90
68358;DHT22;55276;53.260;50.222;2023-01-05T01:01:53;-3268.60;78.00
68358;DHT22;55276;53.260;50.222;2023-01-05T01:04:31;-3268.50;78.20
68358;DHT22;55276;53.260;50.222;2023-01-05T01:07:08;-3268.60;78.50
68358;DHT22;55276;53.260;50.222;2023-01-05T01:09:44;-3268.70;78.40
68358;DHT22;55276;53.260;50.222;2023-01-05T01:12:21;-3268.80;77.90
68358;DHT22;55276;53.260;50.222;2023-01-05T01:15:01;-3268.90;77.80
68358;DHT22;55276;53.260;50.222;2023-01-05T01:17:38;-3269.00;77.40
68358;DHT22;55276;53.260;50.222;2023-01-05T01:20:15;-3269.10;77.20
68358;DHT22;55276;53.260;50.222;2023-01-05T01:22:51;-3269.10;77.20
68358;DHT22;55276;53.260;50.222;2023-01-05T01:25:29;-3269.20;77.20
68358;DHT22;55276;53.260;50.222;2023-01-05T01:28:06;-3269.20;77.20
68358;DHT22;55276;53.260;50.222;2023-01-05T01:30:42;-3269.30;76.50
68358;DHT22;55276;53.260;50.222;2023-01-05T01:33:18;-3269.20;76.50
68358;DHT22;55276;53.260;50.222;2023-01-05T01:35:56;-3269.20;76.90
68358;DHT22;55276;53.260;50.222;2023-01-05T01:38:33;-3269.20;77.00
68358;DHT22;55276;53.260;50.222;2023-01-05T01:41:11;-3269.10;76.80
68358;DHT22;55276;53.260;50.222;2023-01-05T01:43:53;-3269.10;77.30
68358;DHT22;55276;53.260;50.222;2023-01-05T01:46:30;-3269.10;77.20
68358;DHT22;55276;53.260;50.222;2023-01-05T01:49:07;-3269.00;77.30
68358;DHT22;55276;53.260;50.222;2023-01-05T01:51:47;-3268.90;77.60
68358;DHT22;55276;53.260;50.222;2023-01-05T01:54:23;-3268.90;77.60
68358;DHT22;55276;53.260;50.222;2023-01-05T01:57:01;-3268.80;77.70
68358;DHT22;55276;53.260;50.222;2023-01-05T01:59:43;-3268.80;78.10
68358;DHT22;55276;53.260;50.222;2023-01-05T02:02:20;-3268.90;78.30
68358;DHT22;55276;53.260;50.222;2023-01-05T02:05:02;-3268.70;78.30
68358;DHT22;55276;53.260;50.222;2023-01-05T02:07:46;-3268.80;78.70
68358;DHT22;55276;53.260;50.222;2023-01-05T02:28:53;-3268.60;78.60
68358;DHT22;55276;53.260;50.222;2023-01-05T02:31:16;-3268.60;78.60
68358;DHT22;55276;53.260;50.222;2023-01-05T02:42:24;-3268.70;79.00
68358;DHT22;55276;53.260;50.222;2023-01-05T02:45:06;-3268.60;79.20
68358;DHT22;55276;53.260;50.222;2023-01-05T02:47:45;-3268.60;79.30
68358;DHT22;55276;53.260;50.222;2023-01-05T02:50:28;-3268.60;79.40
68358;DHT22;55276;53.260;50.222;2023-01-05T02:56:05;-3268.60;79.50
68358;DHT22;55276;53.260;50.222;2023-01-05T02:58:46;-3268.60;79.70
68358;DHT22;55276;53.260;50.222;2023-01-05T03:01:31;-3268.60;79.80
68358;DHT22;55276;53.260;50.222;2023-01-05T03:04:15;-3268.50;79.70
68358;DHT22;55276;53.260;50.222;2023-01-05T03:07:27;-3268.50;79.80
68358;DHT22;55276;53.260;50.222;2023-01-05T03:10:05;-3268.60;79.80
68358;DHT22;55276;53.260;50.222;2023-01-05T03:13:09;-3268.60;79.80
68358;DHT22;55276;53.260;50.222;2023-01-05T03:16:10;-3268.60;79.60
68358;DHT22;55276;53.260;50.222;2023-01-05T03:18:50;-3268.70;79.70
68358;DHT22;55276;53.260;50.222;2023-01-05T03:21:56;-3268.80;79.40
68358;DHT22;55276;53.260;50.222;2023-01-05T03:24:52;-3268.90;79.40
68358;DHT22;55276;53.260;50.222;2023-01-05T03:27:48;-3268.90;79.20
68358;DHT22;55276;53.260;50.222;2023-01-05T03:34:06;-3269.00;78.90
68358;DHT22;55276;53.260;50.222;2023-01-05T03:37:51;-3269.00;78.90
68358;DHT22;55276;53.260;50.222;2023-01-05T03:40:27;-3269.00;78.80
68358;DHT22;55276;53.260;50.222;2023-01-05T03:43:10;-3269.00;78.70
68358;DHT22;55276;53.260;50.222;2023-01-05T03:45:56;-3269.10;78.70
68358;DHT22;55276;53.260;50.222;2023-01-05T03:48:58;-3269.20;78.60
68358;DHT22;55276;53.260;50.222;2023-01-05T03:51:36;-3269.30;78.50
68358;DHT22;55276;53.260;50.222;2023-01-05T03:54:12;-3269.40;78.30
68358;DHT22;55276;53.260;50.222;2023-01-05T03:56:49;-3269.40;78.20
68358;DHT22;55276;53.260;50.222;2023-01-05T03:59:25;-3269.50;78.10
68358;DHT22;55276;53.260;50.222;2023-01-05T04:02:05;-3269.50;77.90
68358;DHT22;55276;53.260;50.222;2023-01-05T04:04:41;-3269.50;77.70
68358;DHT22;55276;53.260;50.222;2023-01-05T04:07:18;-3269.40;77.60
68358;DHT22;55276;53.260;50.222;2023-01-05T04:09:55;-3269.40;77.30
68358;DHT22;55276;53.260;50.222;2023-01-05T04:12:32;-3269.40;77.10
68358;DHT22;55276;53.260;50.222;2023-01-05T04:15:10;-3269.40;76.90
68358;DHT22;55276;53.260;50.222;2023-01-05T04:17:53;-3269.40;76.70
68358;DHT22;55276;53.260;50.222;2023-01-05T04:20:38;-3269.40;76.70
68358;DHT22;55276;53.260;50.222;2023-01-05T04:23:48;-3269.30;76.80
68358;DHT22;55276;53.260;50.222;2023-01-05T04:26:48;-3269.40;76.90
68358;DHT22;55276;53.260;50.222;2023-01-05T04:29:27;-3269.50;76.90
68358;DHT22;55276;53.260;50.222;2023-01-05T04:32:07;-3269.50;76.80
68358;DHT22;55276;53.260;50.222;2023-01-05T04:34:46;-3269.40;76.70
68358;DHT22;55276;53.260;50.222;2023-01-05T04:37:22;-3269.40;76.90
68358;DHT22;55276;53.260;50.222;2023-01-05T04:40:07;-3269.30;76.90
68358;DHT22;55276;53.260;50.222;2023-01-05T04:42:47;-3269.30;77.00
68358;DHT22;55276;53.260;50.222;2023-01-05T04:45:24;-3269.30;77.10
68358;DHT22;55276;53.260;50.222;2023-01-05T04:48:02;-3269.30;77.00
68358;DHT22;55276;53.260;50.222;2023-01-05T04:50:39;-3269.30;77.10
68358;DHT22;55276;53.260;50.222;2023-01-05T04:53:16;-3269.30;77.10
68358;DHT22;55276;53.260;50.222;2023-01-05T04:55:53;-3269.30;77.10
68358;DHT22;55276;53.260;50.222;2023-01-05T04:58:31;-3269.30;77.30
68358;DHT22;55276;53.260;50.222;2023-01-05T05:01:15;-3269.40;77.20
68358;DHT22;55276;53.260;50.222;2023-01-05T05:03:56;-3269.50;77.10
68358;DHT22;55276;53.260;50.222;2023-01-05T05:06:40;-3269.50;77.00
68358;DHT22;55276;53.260;50.222;2023-01-05T05:09:17;-3269.70;77.10
68358;DHT22;55276;53.260;50.222;2023-01-05T05:11:56;-3269.90;77.10
68358;DHT22;55276;53.260;50.222;2023-01-05T05:14:32;-3270.10;77.00
68358;DHT22;55276;53.260;50.222;2023-01-05T05:17:12;-3270.20;76.70
68358;DHT22;55276;53.260;50.222;2023-01-05T05:19:50;-3270.20;76.50
68358;DHT22;55276;53.260;50.222;2023-01-05T05:22:26;-3270.10;76.30
68358;DHT22;55276;53.260;50.222;2023-01-05T05:25:03;-3270.10;76.40
68358;DHT22;55276;53.260;50.222;2023-01-05T05:27:40;-3270.10;76.60
68358;DHT22;55276;53.260;50.222;2023-01-05T05:30:19;-3270.10;76.90
68358;DHT22;55276;53.260;50.222;2023-01-05T05:32:56;-3270.20;76.80
68358;DHT22;55276;53.260;50.222;2023-01-05T05:35:33;-3270.10;76.90
68358;DHT22;55276;53.260;50.222;2023-01-05T05:38:11;-3270.10;77.20
68358;DHT22;55276;53.260;50.222;2023-01-05T05:40:48;-3270.10;77.40
68358;DHT22;55276;53.260;50.222;2023-01-05T05:43:26;-3270.10;77.50
68358;DHT22;55276;53.260;50.222;2023-01-05T05:46:03;-3270.20;77.70
68358;DHT22;55276;53.260;50.222;2023-01-05T05:48:39;-3270.20;77.40
68358;DHT22;55276;53.260;50.222;2023-01-05T05:51:16;-3270.10;77.40
68358;DHT22;55276;53.260;50.222;2023-01-05T05:53:53;-3270.10;77.50
68358;DHT22;55276;53.260;50.222;2023-01-05T05:57:01;-3270.10;77.40
68358;DHT22;55276;53.260;50.222;2023-01-05T05:59:39;-3270.00;77.20
68358;DHT22;55276;53.260;50.222;2023-01-05T06:02:18;-3270.00;77.30
68358;DHT22;55276;53.260;50.222;2023-01-05T06:04:56;-3270.00;77.30
68358;DHT22;55276;53.260;50.222;2023-01-05T06:07:34;-3270.10;77.20
68358;DHT22;55276;53.260;50.222;2023-01-05T06:10:11;-3270.10;77.10
68358;DHT22;55276;53.260;50.222;2023-01-05T06:12:47;-3270.20;77.00
68358;DHT22;55276;53.260;50.222;2023-01-05T06:15:29;-3270.40;77.00
68358;DHT22;55276;53.260;50.222;2023-01-05T06:18:11;-3270.70;76.90
68358;DHT22;55276;53.260;50.222;2023-01-05T06:21:05;-3270.70;76.70
68358;DHT22;55276;53.260;50.222;2023-01-05T06:23:44;-3270.90;76.40
68358;DHT22;55276;53.260;50.222;2023-01-05T06:26:21;-3271.10;76.30
68358;DHT22;55276;53.260;50.222;2023-01-05T06:29:00;-3271.20;76.10
68358;DHT22;55276;53.260;50.222;2023-01-05T06:31:37;-3271.40;75.70
68358;DHT22;55276;53.260;50.222;2023-01-05T06:34:16;-3271.50;75.30
68358;DHT22;55276;53.260;50.222;2023-01-05T06:37:04;-3271.60;74.90
68358;DHT22;55276;53.260;50.222;2023-01-05T06:43:26;-3271.40;74.50
68358;DHT22;55276;53.260;50.222;2023-01-05T06:46:28;-3271.50;74.50
68358;DHT22;55276;53.260;50.222;2023-01-05T06:49:10;-3271.50;74.10
68358;DHT22;55276;53.260;50.222;2023-01-05T06:52:07;-3271.60;74.00
68358;DHT22;55276;53.260;50.222;2023-01-05T06:54:44;-3271.70;73.90
68358;DHT22;55276;53.260;50.222;2023-01-05T06:57:21;-3271.70;73.70
68358;DHT22;55276;53.260;50.222;2023-01-05T06:59:59;-3271.70;73.40
68358;DHT22;55276;53.260;50.222;2023-01-05T07:02:36;-3271.80;73.20
68358;DHT22;55276;53.260;50.222;2023-01-05T07:05:15;-3271.90;73.00
68358;DHT22;55276;53.260;50.222;2023-01-05T07:07:53;-3272.00;72.30
68358;DHT22;55276;53.260;50.222;2023-01-05T07:10:32;-3272.10;71.90
68358;DHT22;55276;53.260;50.222;2023-01-05T07:13:09;-3272.20;71.80
68358;DHT22;55276;53.260;50.222;2023-01-05T07:15:49;-3272.40;71.60
68358;DHT22;55276;53.260;50.222;2023-01-05T07:18:25;-3272.50;71.40
68358;DHT22;55276;53.260;50.222;2023-01-05T07:21:03;-3272.60;71.10
68358;DHT22;55276;53.260;50.222;2023-01-05T07:23:47;-3272.70;70.80
68358;DHT22;55276;53.260;50.222;2023-01-05T07:26:25;-3272.90;70.50
68358;DHT22;55276;53.260;50.222;2023-01-05T07:29:02;-3273.00;70.20
68358;DHT22;55276;53.260;50.222;2023-01-05T07:31:42;-3273.20;69.90
68358;DHT22;55276;53.260;50.222;2023-01-05T07:34:22;-3273.30;69.50
68358;DHT22;55276;53.260;50.222;2023-01-05T07:36:59;-3273.40;69.10
68358;DHT22;55276;53.260;50.222;2023-01-05T07:39:36;-3273.20;68.60
68358;DHT22;55276;53.260;50.222;2023-01-05T07:42:13;-3273.20;68.80
68358;DHT22;55276;53.260;50.222;2023-01-05T07:44:49;-3273.30;69.00
68358;DHT22;55276;53.260;50.222;2023-01-05T07:47:27;-3273.50;68.80
68358;DHT22;55276;53.260;50.222;2023-01-05T07:50:06;-3273.60;68.40
68358;DHT22;55276;53.260;50.222;2023-01-05T07:52:43;-3273.60;68.30
68358;DHT22;55276;53.260;50.222;2023-01-05T07:55:20;-3273.70;68.10
68358;DHT22;55276;53.260;50.222;2023-01-05T07:57:58;-3273.80;67.80
68358;DHT22;55276;53.260;50.222;2023-01-05T08:00:37;-3273.80;67.20
68358;DHT22;55276;53.260;50.222;2023-01-05T08:03:15;-3273.60;66.70
68358;DHT22;55276;53.260;50.222;2023-01-05T08:05:51;-3273.40;67.10
68358;DHT22;55276;53.260;50.222;2023-01-05T08:08:29;-3273.30;67.30
68358;DHT22;55276;53.260;50.222;2023-01-05T08:11:07;-3273.00;67.00
68358;DHT22;55276;53.260;50.222;2023-01-05T08:13:47;-3272.80;67.90
68358;DHT22;55276;53.260;50.222;2023-01-05T08:16:38;-3272.60;67.50
68358;DHT22;55276;53.260;50.222;2023-01-05T08:19:19;-3272.50;68.60
68358;DHT22;55276;53.260;50.222;2023-01-05T08:21:56;-3272.50;67.80
68358;DHT22;55276;53.260;50.222;2023-01-05T08:24:43;-3272.60;67.80
68358;DHT22;55276;53.260;50.222;2023-01-05T08:27:29;-3272.50;67.30
68358;DHT22;55276;53.260;50.222;2023-01-05T08:30:49;-3272.30;66.50
68358;DHT22;55276;53.260;50.222;2023-01-05T08:33:47;-3272.20;66.80
68358;DHT22;55276;53.260;50.222;2023-01-05T08:36:34;-3272.00;66.80
68358;DHT22;55276;53.260;50.222;2023-01-05T08:39:57;-3272.10;66.50
68358;DHT22;55276;53.260;50.222;2023-01-05T08:47:11;-3271.90;66.90
68358;DHT22;55276;53.260;50.222;2023-01-05T08:49:57;-3272.00;67.20
68358;DHT22;55276;53.260;50.222;2023-01-05T08:59:59;-3272.50;66.70
68358;DHT22;55276;53.260;50.222;2023-01-05T09:02:37;-3272.40;66.60
68358;DHT22;55276;53.260;50.222;2023-01-05T09:05:16;-3272.40;66.90
68358;DHT22;55276;53.260;50.222;2023-01-05T09:07:58;-3272.40;66.40
68358;DHT22;55276;53.260;50.222;2023-01-05T09:10:35;-3272.30;66.90
68358;DHT22;55276;53.260;50.222;2023-01-05T09:13:14;-3272.20;67.10
68358;DHT22;55276;53.260;50.222;2023-01-05T09:15:52;-3272.40;67.00
68358;DHT22;55276;53.260;50.222;2023-01-05T09:18:31;-3272.30;67.50
68358;DHT22;55276;53.260;50.222;2023-01-05T09:21:08;-3272.40;67.60
68358;DHT22;55276;53.260;50.222;2023-01-05T09:23:46;-3272.50;67.70
68358;DHT22;55276;53.260;50.222;2023-01-05T09:26:24;-3272.60;67.70
68358;DHT22;55276;53.260;50.222;2023-01-05T09:29:01;-3272.70;67.70
68358;DHT22;55276;53.260;50.222;2023-01-05T09:31:41;-3272.60;67.50
68358;DHT22;55276;53.260;50.222;2023-01-05T09:34:17;-3272.70;67.70
68358;DHT22;55276;53.260;50.222;2023-01-05T09:37:02;-3272.70;67.90
68358;DHT22;55276;53.260;50.222;2023-01-05T09:40:12;-3272.70;68.00
68358;DHT22;55276;53.260;50.222;2023-01-05T09:46:20;-3272.50;67.90
68358;DHT22;55276;53.260;50.222;2023-01-05T09:49:02;-3272.50;68.10
68358;DHT22;55276;53.260;50.222;2023-01-05T09:51:39;-3272.50;67.80
68358;DHT22;55276;53.260;50.222;2023-01-05T09:54:28;-3272.30;68.50
68358;DHT22;55276;53.260;50.222;2023-01-05T09:57:35;-3272.30;69.10
68358;DHT22;55276;53.260;50.222;2023-01-05T10:01:06;-3272.30;69.20
68358;DHT22;55276;53.260;50.222;2023-01-05T10:04:04;-3272.30;69.50
68358;DHT22;55276;53.260;50.222;2023-01-05T10:06:59;-3272.30;69.50
68358;DHT22;55276;53.260;50.222;2023-01-05T10:09:59;-3272.20;69.80
68358;DHT22;55276;53.260;50.222;2023-01-05T10:16:53;-3272.10;70.80
68358;DHT22;55276;53.260;50.222;2023-01-05T10:19:36;-3272.10;70.90
68358;DHT22;55276;53.260;50.222;2023-01-05T10:29:14;-3271.90;72.00
68358;DHT22;55276;53.260;50.222;2023-01-05T10:32:58;-3271.90;72.50
68358;DHT22;55276;53.260;50.222;2023-01-05T10:38:57;-3271.90;72.70
68358;DHT22;55276;53.260;50.222;2023-01-05T10:42:13;-3271.90;73.10
68358;DHT22;55276;53.260;50.222;2023-01-05T10:44:59;-3271.90;73.10
68358;DHT22;55276;53.260;50.222;2023-01-05T10:47:43;-3271.90;73.40
68358;DHT22;55276;53.260;50.222;2023-01-05T10:50:39;-3272.10;73.40
68358;DHT22;55276;53.260;50.222;2023-01-05T10:53:24;-3272.00;73.40
68358;DHT22;55276;53.260;50.222;2023-01-05T10:56:25;-3272.20;73.30
68358;DHT22;55276;53.260;50.222;2023-01-05T10:59:08;-3272.20;73.20
68358;DHT22;55276;53.260;50.222;2023-01-05T11:05:33;-3272.20;73.50
68358;DHT22;55276;53.260;50.222;2023-01-05T11:08:27;-3272.20;73.80
68358;DHT22;55276;53.260;50.222;2023-01-05T11:11:29;-3272.40;73.60
68358;DHT22;55276;53.260;50.222;2023-01-05T11:14:46;-3272.30;73.50
68358;DHT22;55276;53.260;50.222;2023-01-05T11:17:25;-3272.40;73.80
68358;DHT22;55276;53.260;50.222;2023-01-05T11:20:04;-3272.40;73.30
68358;DHT22;55276;53.260;50.222;2023-01-05T11:22:44;-3272.40;73.90
68358;DHT22;55276;53.260;50.222;2023-01-05T11:28:10;-3272.40;73.90
68358;DHT22;55276;53.260;50.222;2023-01-05T11:31:07;-3272.40;74.20
68358;DHT22;55276;53.260;50.222;2023-01-05T11:33:45;-3272.50;74.40
68358;DHT22;55276;53.260;50.222;2023-01-05T11:36:24;-3272.50;74.30
68358;DHT22;55276;53.260;50.222;2023-01-05T11:39:02;-3272.40;74.60
68358;DHT22;55276;53.260;50.222;2023-01-05T11:41:39;-3272.40;74.70
68358;DHT22;55276;53.260;50.222;2023-01-05T11:44:23;-3272.50;75.00
68358;DHT22;55276;53.260;50.222;2023-01-05T11:47:06;-3272.60;75.20
68358;DHT22;55276;53.260;50.222;2023-01-05T11:49:43;-3272.60;74.90
68358;DHT22;55276;53.260;50.222;2023-01-05T11:52:31;-3272.70;74.70
68358;DHT22;55276;53.260;50.222;2023-01-05T11:55:40;-3272.60;75.00
68358;DHT22;55276;53.260;50.222;2023-01-05T11:58:25;-3272.60;75.40
68358;DHT22;55276;53.260;50.222;2023-01-05T12:07:40;-3272.70;75.50
68358;DHT22;55276;53.260;50.222;2023-01-05T12:28:04;-3272.60;77.00
68358;DHT22;55276;53.260;50.222;2023-01-05T12:37:08;-3272.60;77.60
68358;DHT22;55276;53.260;50.222;2023-01-05T12:43:31;-3272.60;77.70
68358;DHT22;55276;53.260;50.222;2023-01-05T12:49:29;-3272.70;78.30
68358;DHT22;55276;53.260;50.222;2023-01-05T12:52:37;-3272.70;78.30
68358;DHT22;55276;53.260;50.222;2023-01-05T12:55:22;-3272.80;78.40
68358;DHT22;55276;53.260;50.222;2023-01-05T12:58:31;-3272.80;78.40
68358;DHT22;55276;53.260;50.222;2023-01-05T13:01:24;-3272.80;78.30
68358;DHT22;55276;53.260;50.222;2023-01-05T13:19:47;-3273.00;78.70
68358;DHT22;55276;53.260;50.222;2023-01-05T13:23:15;-3273.00;78.80
68358;DHT22;55276;53.260;50.222;2023-01-05T13:26:13;-3273.20;79.00
68358;DHT22;55276;53.260;50.222;2023-01-05T13:28:53;-3273.20;78.70
68358;DHT22;55276;53.260;50.222;2023-01-05T13:35:10;-3273.20;79.00
68358;DHT22;55276;53.260;50.222;2023-01-05T13:53:23;-3273.20;79.80
68358;DHT22;55276;53.260;50.222;2023-01-05T13:56:05;-3273.20;80.00
68358;DHT22;55276;53.260;50.222;2023-01-05T13:58:48;-3273.20;80.10
68358;DHT22;55276;53.260;50.222;2023-01-05T14:04:18;-3273.40;80.10
68358;DHT22;55276;53.260;50.222;2023-01-05T14:07:04;-3273.40;79.90
68358;DHT22;55276;53.260;50.222;2023-01-05T14:09:50;-3273.30;80.00
68358;DHT22;55276;53.260;50.222;2023-01-05T14:12:44;-3273.30;80.30
68358;DHT22;55276;53.260;50.222;2023-01-05T14:15:41;-3273.40;80.30
68358;DHT22;55276;53.260;50.222;2023-01-05T14:18:50;-3273.50;80.00
68358;DHT22;55276;53.260;50.222;2023-01-05T14:24:39;-3273.40;80.20
68358;DHT22;55276;53.260;50.222;2023-01-05T14:27:23;-3273.50;80.10
68358;DHT22;55276;53.260;50.222;2023-01-05T14:30:00;-3273.50;80.50
68358;DHT22;55276;53.260;50.222;2023-01-05T14:32:40;-3273.60;80.50
68358;DHT22;55276;53.260;50.222;2023-01-05T14:35:21;-3273.50;80.40
68358;DHT22;55276;53.260;50.222;2023-01-05T14:38:06;-3273.50;80.50
68358;DHT22;55276;53.260;50.222;2023-01-05T14:40:51;-3273.60;80.70
68358;DHT22;55276;53.260;50.222;2023-01-05T14:43:33;-3273.60;80.60
68358;DHT22;55276;53.260;50.222;2023-01-05T14:46:13;-3273.60;80.50
68358;DHT22;55276;53.260;50.222;2023-01-05T14:49:04;-3273.70;80.70
68358;DHT22;55276;53.260;50.222;2023-01-05T14:51:54;-3273.70;80.60
68358;DHT22;55276;53.260;50.222;2023-01-05T14:57:37;-3273.80;80.80
68358;DHT22;55276;53.260;50.222;2023-01-05T15:03:28;-3273.90;80.20
68358;DHT22;55276;53.260;50.222;2023-01-05T15:06:14;-3273.90;80.00
68358;DHT22;55276;53.260;50.222;2023-01-05T15:15:33;-3274.00;79.80
68358;DHT22;55276;53.260;50.222;2023-01-05T15:32:51;-3274.20;79.70
68358;DHT22;55276;53.260;50.222;2023-01-05T15:35:54;-3274.40;79.40
68358;DHT22;55276;53.260;50.222;2023-01-05T15:38:45;-3274.30;79.00
68358;DHT22;55276;53.260;50.222;2023-01-05T15:41:25;-3274.40;79.00
68358;DHT22;55276;53.260;50.222;2023-01-05T15:44:06;-3274.40;78.60
68358;DHT22;55276;53.260;50.222;2023-01-05T15:46:43;-3274.40;78.70
68358;DHT22;55276;53.260;50.222;2023-01-05T15:49:28;-3274.40;78.40
68358;DHT22;55276;53.260;50.222;2023-01-05T15:52:22;-3274.40;78.90
68358;DHT22;55276;53.260;50.222;2023-01-05T15:55:12;-3274.50;78.70
68358;DHT22;55276;53.260;50.222;2023-01-05T15:58:14;-3274.50;78.90
68358;DHT22;55276;53.260;50.222;2023-01-05T16:03:48;-3274.60;78.30
68358;DHT22;55276;53.260;50.222;2023-01-05T16:06:27;-3274.60;78.40
68358;DHT22;55276;53.260;50.222;2023-01-05T16:09:13;-3274.60;78.50
68358;DHT22;55276;53.260;50.222;2023-01-05T16:12:02;-3274.60;78.90
68358;DHT22;55276;53.260;50.222;2023-01-05T16:14:44;-3274.60;78.90
68358;DHT22;55276;53.260;50.222;2023-01-05T16:17:25;-3274.70;79.10
68358;DHT22;55276;53.260;50.222;2023-01-05T16:20:24;-3274.80;78.80
68358;DHT22;55276;53.260;50.222;2023-01-05T16:23:22;-3274.90;78.80
68358;DHT22;55276;53.260;50.222;2023-01-05T16:26:04;-3274.90;78.80
68358;DHT22;55276;53.260;50.222;2023-01-05T16:28:41;-3275.00;78.60
68358;DHT22;55276;53.260;50.222;2023-01-05T16:31:35;-3275.00;78.40
68358;DHT22;55276;53.260;50.222;2023-01-05T16:34:19;-3274.90;78.30
68358;DHT22;55276;53.260;50.222;2023-01-05T16:37:15;-3274.90;78.20
68358;DHT22;55276;53.260;50.222;2023-01-05T16:40:00;-3274.90;77.80
68358;DHT22;55276;53.260;50.222;2023-01-05T16:42:44;-3274.80;78.00
68358;DHT22;55276;53.260;50.222;2023-01-05T16:45:28;-3274.90;78.40
68358;DHT22;55276;53.260;50.222;2023-01-05T16:54:03;-3275.00;77.90
68358;DHT22;55276;53.260;50.222;2023-01-05T16:56:56;-3275.00;78.00
68358;DHT22;55276;53.260;50.222;2023-01-05T16:59:46;-3274.90;78.10
68358;DHT22;55276;53.260;50.222;2023-01-05T17:02:29;-3274.90;78.10
68358;DHT22;55276;53.260;50.222;2023-01-05T17:05:07;-3275.00;78.20
68358;DHT22;55276;53.260;50.222;2023-01-05T17:07:46;-3275.00;78.00
68358;DHT22;55276;53.260;50.222;2023-01-05T17:10:26;-3275.00;78.50
68358;DHT22;55276;53.260;50.222;2023-01-05T17:13:15;-3275.00;78.40
68358;DHT22;55276;53.260;50.222;2023-01-05T17:15:52;-3275.00;78.60
68358;DHT22;55276;53.260;50.222;2023-01-05T17:18:28;-3275.00;78.70
68358;DHT22;55276;53.260;50.222;2023-01-05T17:21:07;-3275.00;78.60
68358;DHT22;55276;53.260;50.222;2023-01-05T17:23:56;-3275.00;79.00
68358;DHT22;55276;53.260;50.222;2023-01-05T17:26:36;-3275.00;79.20
68358;DHT22;55276;53.260;50.222;2023-01-05T17:29:22;-3275.00;79.60
68358;DHT22;55276;53.260;50.222;2023-01-05T17:32:00;-3275.10;79.70
68358;DHT22;55276;53.260;50.222;2023-01-05T17:34:38;-3275.10;79.50
68358;DHT22;55276;53.260;50.222;2023-01-05T17:37:17;-3275.00;79.70
68358;DHT22;55276;53.260;50.222;2023-01-05T17:40:05;-3275.00;80.00
68358;DHT22;55276;53.260;50.222;2023-01-05T17:42:45;-3274.90;80.40
68358;DHT22;55276;53.260;50.222;2023-01-05T17:45:25;-3275.00;80.50
68358;DHT22;55276;53.260;50.222;2023-01-05T17:48:02;-3274.90;80.80
68358;DHT22;55276;53.260;50.222;2023-01-05T17:50:38;-3275.00;81.30
68358;DHT22;55276;53.260;50.222;2023-01-05T17:53:15;-3275.20;81.40
68358;DHT22;55276;53.260;50.222;2023-01-05T17:55:52;-3275.20;80.90
68358;DHT22;55276;53.260;50.222;2023-01-05T17:58:28;-3275.10;80.90
68358;DHT22;55276;53.260;50.222;2023-01-05T18:05:22;-3275.00;81.00
68358;DHT22;55276;53.260;50.222;2023-01-05T18:17:29;-3274.90;81.70
68358;DHT22;55276;53.260;50.222;2023-01-05T18:20:01;-3274.90;82.00
68358;DHT22;55276;53.260;50.222;2023-01-05T18:23:41;-3275.00;82.10
68358;DHT22;55276;53.260;50.222;2023-01-05T18:26:51;-3275.10;82.10
68358;DHT22;55276;53.260;50.222;2023-01-05T18:38:56;-3275.00;81.50
68358;DHT22;55276;53.260;50.222;2023-01-05T18:42:13;-3274.90;81.80
68358;DHT22;55276;53.260;50.222;2023-01-05T18:45:44;-3275.00;82.00
68358;DHT22;55276;53.260;50.222;2023-01-05T18:48:21;-3274.90;82.00
68358;DHT22;55276;53.260;50.222;2023-01-05T18:50:58;-3275.00;82.60
68358;DHT22;55276;53.260;50.222;2023-01-05T18:53:36;-3275.10;82.30
68358;DHT22;55276;53.260;50.222;2023-01-05T18:56:14;-3275.10;82.20
68358;DHT22;55276;53.260;50.222;2023-01-05T18:58:52;-3275.10;82.40
68358;DHT22;55276;53.260;50.222;2023-01-05T19:01:29;-3275.10;82.10
68358;DHT22;55276;53.260;50.222;2023-01-05T19:04:06;-3275.10;81.70
68358;DHT22;55276;53.260;50.222;2023-01-05T19:06:42;-3275.10;81.80
68358;DHT22;55276;53.260;50.222;2023-01-05T19:09:20;-3275.10;82.00
68358;DHT22;55276;53.260;50.222;2023-01-05T19:12:00;-3275.10;82.20
68358;DHT22;55276;53.260;50.222;2023-01-05T19:14:38;-3275.10;82.20
68358;DHT22;55276;53.260;50.222;2023-01-05T19:17:15;-3275.00;82.00
68358;DHT22;55276;53.260;50.222;2023-01-05T19:20:01;-3275.00;82.10
68358;DHT22;55276;53.260;50.222;2023-01-05T19:22:38;-3275.00;82.60
68358;DHT22;55276;53.260;50.222;2023-01-05T19:25:16;-3275.10;82.50
68358;DHT22;55276;53.260;50.222;2023-01-05T19:27:53;-3275.20;82.70
68358;DHT22;55276;53.260;50.222;2023-01-05T19:30:31;-3275.20;82.10
68358;DHT22;55276;53.260;50.222;2023-01-05T19:33:08;-3275.20;82.10
68358;DHT22;55276;53.260;50.222;2023-01-05T19:35:44;-3275.20;82.60
68358;DHT22;55276;53.260;50.222;2023-01-05T19:38:22;-3275.20;82.50
68358;DHT22;55276;53.260;50.222;2023-01-05T19:41:07;-3275.20;82.60
68358;DHT22;55276;53.260;50.222;2023-01-05T19:43:49;-3275.20;82.70
68358;DHT22;55276;53.260;50.222;2023-01-05T19:46:30;-3275.20;82.30
68358;DHT22;55276;53.260;50.222;2023-01-05T19:49:16;-3275.10;82.60